Apsheronsk, Russia
Current Conditions -  °F | °C
As of 3:30 AM on Tuesday 25 Nov 2014 (Local Time) from URKK Reporting Station
Overcast Overcast  
Wind Chill: 11°   Ceiling: 1400
Heat Index: 25°   Visibility: 6mi
Dew Point: 19°   Wind: 18mph
Humidity: 80%   Direction: 80°E
Pressure: 30.36"   Gusts: 25mph
Location:  44.46°N, 39.73°E
Report Text: URKK 250030Z 08008G11MPS 9999 OVC014 M04/M07 Q1028 NOSIG RMKQFE768 SC070
Loading
Personal Weather Stations






























Interactive Weather Map New forecast layout! Learn more

10-Day Weather Forecast

Advertisements
Track Severe Weather on mobile